Time;durP1;ratioP1;P1;durP2;ratioP2;P2;SDS_P1;SDS_P2;PMS_P1;PMS_P2;Temp;Humidity;BMP_temperature;BMP_pressure;BME280_temperature;BME280_humidity;BME280_pressure;Samples;Min_cycle;Max_cycle;Signal;HPM_P1;HPM_P2
2022/11/22 00:02:02;;;;;;;14.87;10.10;;;;;;;-1.60;100.00;96365.94;6276125;28;20585;-43
2022/11/22 00:05:04;;;;;;;14.57;10.53;;;;;;;-1.53;100.00;96361.28;6294903;28;20301;-44
2022/11/22 00:08:07;;;;;;;19.67;10.30;;;;;;;-1.48;100.00;96351.50;6291666;28;20237;-43
2022/11/22 00:11:09;;;;;;;15.10;9.20;;;;;;;-1.42;100.00;96348.59;6292733;28;20387;-43
2022/11/22 00:14:11;;;;;;;26.07;11.70;;;;;;;-1.36;100.00;96337.06;6292958;28;20379;-43
2022/11/22 00:17:13;;;;;;;14.77;10.30;;;;;;;-1.35;100.00;96337.00;6293548;28;20222;-43
2022/11/22 00:20:16;;;;;;;15.77;11.13;;;;;;;-1.32;100.00;96333.41;6290966;28;20333;-43
2022/11/22 00:23:18;;;;;;;17.53;10.77;;;;;;;-1.26;100.00;96322.72;6291160;28;20321;-43
2022/11/22 00:26:20;;;;;;;15.83;11.80;;;;;;;-1.18;100.00;96320.53;6291414;28;20241;-43
2022/11/22 00:29:22;;;;;;;21.70;12.57;;;;;;;-1.04;100.00;96327.53;6293495;28;20269;-43
2022/11/22 00:32:25;;;;;;;27.73;14.57;;;;;;;-0.84;100.00;96329.84;6293403;28;20687;-44
2022/11/22 00:35:27;;;;;;;27.27;15.33;;;;;;;-0.68;100.00;96328.03;6291312;28;20235;-44
2022/11/22 00:38:29;;;;;;;33.17;15.93;;;;;;;-0.55;100.00;96321.22;6290983;28;20238;-43
2022/11/22 00:41:31;;;;;;;31.33;16.30;;;;;;;-0.50;100.00;96315.78;6294076;28;20276;-44
2022/11/22 00:44:33;;;;;;;44.70;17.30;;;;;;;-0.43;100.00;96320.50;6291346;28;20323;-44
2022/11/22 00:47:35;;;;;;;42.20;16.53;;;;;;;-0.36;100.00;96310.59;6292584;28;20592;-44
2022/11/22 00:50:38;;;;;;;87.97;20.30;;;;;;;-0.35;100.00;96307.09;6281698;28;20236;-44
2022/11/22 00:53:40;;;;;;;64.40;20.23;;;;;;;-0.30;100.00;96312.03;6283641;28;20261;-44
2022/11/22 00:56:42;;;;;;;137.67;22.10;;;;;;;-0.26;100.00;96303.97;6291411;28;20225;-43
2022/11/22 00:59:44;;;;;;;110.63;22.20;;;;;;;-0.23;100.00;96306.38;6289851;28;20227;-45
2022/11/22 01:02:46;;;;;;;235.37;32.70;;;;;;;-0.20;100.00;96306.16;6294983;28;20701;-43
2022/11/22 01:05:48;;;;;;;31.43;15.97;;;;;;;-0.18;100.00;96303.50;6290783;28;20225;-44
2022/11/22 01:08:50;;;;;;;54.60;18.10;;;;;;;-0.17;100.00;96307.75;6293400;28;20271;-44
2022/11/22 01:11:52;;;;;;;52.30;17.30;;;;;;;-0.16;100.00;96296.47;6289661;28;20257;-43
2022/11/22 01:14:55;;;;;;;216.40;30.17;;;;;;;-0.14;100.00;96289.44;6291753;28;20276;-43
2022/11/22 01:17:57;;;;;;;45.47;15.37;;;;;;;-0.14;100.00;96292.88;6291476;28;20290;-43
2022/11/22 01:21:00;;;;;;;128.43;21.97;;;;;;;-0.13;100.00;96291.94;6292098;28;20226;-43
2022/11/22 01:24:02;;;;;;;159.63;22.57;;;;;;;-0.12;100.00;96285.00;6285645;28;20229;-43
2022/11/22 01:27:04;;;;;;;124.00;21.63;;;;;;;-0.12;100.00;96279.81;6293104;28;20293;-43
2022/11/22 01:30:06;;;;;;;186.80;22.33;;;;;;;-0.12;100.00;96283.25;6289989;28;20230;-43
2022/11/22 01:33:09;;;;;;;77.43;17.60;;;;;;;-0.10;100.00;96278.78;6291616;28;20305;-43
2022/11/22 01:36:11;;;;;;;194.10;23.93;;;;;;;-0.09;100.00;96270.06;6290723;28;20217;-44
2022/11/22 01:39:14;;;;;;;96.37;16.60;;;;;;;-0.10;100.00;96267.59;6290881;28;20309;-43
2022/11/22 01:42:16;;;;;;;187.03;24.67;;;;;;;-0.09;100.00;96271.81;6289370;28;20283;-43
2022/11/22 01:45:30;;;;;;;255.40;28.43;;;;;;;-0.07;100.00;96262.19;6280060;28;20250;-43
2022/11/22 01:48:48;;;;;;;314.87;30.67;;;;;;;-0.06;100.00;96262.13;6286906;28;20230;-43
2022/11/22 01:51:54;;;;;;;64.37;14.37;;;;;;;-0.03;100.00;96261.09;6287647;28;20230;-43
2022/11/22 01:55:02;;;;;;;15.27;10.07;;;;;;;-0.01;100.00;96265.28;6288832;28;20237;-43
2022/11/22 01:58:05;;;;;;;46.03;13.83;;;;;;;0.03;100.00;96270.25;6289887;28;20675;-43
2022/11/22 02:01:07;;;;;;;52.60;13.40;;;;;;;0.05;100.00;96256.28;6272646;28;20236;-43
2022/11/22 02:04:13;;;;;;;31.20;12.37;;;;;;;0.08;100.00;96247.47;6296791;28;20240;-44
2022/11/22 02:07:42;;;;;;;82.13;14.10;;;;;;;0.11;100.00;96248.09;6290003;28;20222;-43
2022/11/22 02:10:48;;;;;;;156.13;19.67;;;;;;;0.14;100.00;96244.50;6286833;28;20230;-43
2022/11/22 02:13:52;;;;;;;17.93;9.60;;;;;;;0.17;100.00;96239.13;6284389;28;20234;-43
2022/11/22 02:16:54;;;;;;;57.67;13.27;;;;;;;0.20;100.00;96241.53;6291921;28;20299;-43
2022/11/22 02:19:56;;;;;;;29.23;11.57;;;;;;;0.22;100.00;96235.31;6290062;28;20371;-44
2022/11/22 02:22:58;;;;;;;148.53;18.00;;;;;;;0.25;100.00;96244.66;6286202;28;20410;-43
2022/11/22 02:26:01;;;;;;;37.10;11.30;;;;;;;0.26;100.00;96239.38;6284749;28;20221;-43
2022/11/22 02:29:06;;;;;;;96.80;15.63;;;;;;;0.29;100.00;96239.19;6292875;28;20259;-43
2022/11/22 02:32:08;;;;;;;39.50;12.47;;;;;;;0.30;100.00;96233.06;6292733;28;20313;-43
2022/11/22 02:35:29;;;;;;;57.50;12.30;;;;;;;0.33;100.00;96229.44;6296738;28;20354;-43
2022/11/22 02:38:34;;;;;;;18.47;10.33;;;;;;;0.36;100.00;96234.44;6289283;28;21051;-43
2022/11/22 02:41:37;;;;;;;41.50;11.73;;;;;;;0.38;100.00;96237.78;6293804;28;20230;-43
2022/11/22 02:44:40;;;;;;;109.37;17.60;;;;;;;0.39;100.00;96218.69;6296218;28;20281;-44
2022/11/22 02:47:42;;;;;;;66.13;14.03;;;;;;;0.44;100.00;96216.63;6293333;28;20232;-44
2022/11/22 02:50:45;;;;;;;22.60;11.70;;;;;;;0.45;100.00;96217.47;6293972;28;20222;-43
2022/11/22 02:53:49;;;;;;;25.70;12.87;;;;;;;0.47;100.00;96203.47;6288231;28;20243;-43
2022/11/22 02:56:51;;;;;;;99.67;19.43;;;;;;;0.51;100.00;96210.09;6295815;28;20256;-43
2022/11/22 02:59:53;;;;;;;76.53;16.90;;;;;;;0.52;100.00;96201.41;6296003;28;20328;-44
2022/11/22 03:02:55;;;;;;;16.70;10.57;;;;;;;0.52;100.00;96196.19;6295178;28;20218;-43
2022/11/22 03:05:57;;;;;;;38.10;16.37;;;;;;;0.55;100.00;96190.81;6292382;28;20245;-43
2022/11/22 03:08:59;;;;;;;47.37;16.80;;;;;;;0.57;100.00;96196.75;6296360;28;20382;-44
2022/11/22 03:12:02;;;;;;;34.23;16.73;;;;;;;0.60;100.00;96186.16;6292789;28;20227;-43
2022/11/22 03:15:04;;;;;;;30.47;15.43;;;;;;;0.63;100.00;96185.13;6294470;28;20611;-45
2022/11/22 03:18:06;;;;;;;31.03;15.80;;;;;;;0.66;100.00;96174.56;6289019;28;20250;-44
2022/11/22 03:21:09;;;;;;;29.40;15.33;;;;;;;0.69;100.00;96177.78;6277007;28;20210;-45
2022/11/22 03:24:11;;;;;;;30.83;15.40;;;;;;;0.72;100.00;96185.38;6288991;28;20234;-43
2022/11/22 03:27:13;;;;;;;32.37;16.97;;;;;;;0.74;100.00;96178.31;6285441;28;20224;-43
2022/11/22 03:30:18;;;;;;;35.27;18.40;;;;;;;0.76;100.00;96173.03;6277079;28;20993;-44
2022/11/22 03:33:20;;;;;;;33.53;17.97;;;;;;;0.78;100.00;96178.13;6291725;28;20807;-43
2022/11/22 03:36:22;;;;;;;30.10;17.80;;;;;;;0.78;100.00;96171.16;6293686;28;20246;-43
2022/11/22 03:39:24;;;;;;;36.53;18.47;;;;;;;0.82;100.00;96164.81;6293811;28;20306;-44
2022/11/22 03:42:27;;;;;;;36.33;18.93;;;;;;;0.83;100.00;96160.47;6285984;28;20226;-43
2022/11/22 03:45:29;;;;;;;35.57;18.47;;;;;;;0.85;100.00;96156.00;6287110;28;20240;-44
2022/11/22 03:48:32;;;;;;;32.43;17.83;;;;;;;0.87;100.00;96161.94;6294375;28;20227;-44
2022/11/22 03:51:34;;;;;;;34.23;19.03;;;;;;;0.89;100.00;96144.50;6292157;28;20232;-43
2022/11/22 03:54:37;;;;;;;31.83;17.73;;;;;;;0.90;100.00;96136.56;6291760;28;20284;-44
2022/11/22 03:57:39;;;;;;;30.70;18.00;;;;;;;0.92;100.00;96131.28;6292132;28;20232;-44
2022/11/22 04:00:41;;;;;;;35.17;18.87;;;;;;;0.96;100.00;96138.78;6293297;28;20592;-43
2022/11/22 04:03:43;;;;;;;35.97;19.07;;;;;;;0.96;100.00;96138.78;6294175;28;20242;-44
2022/11/22 04:06:45;;;;;;;35.13;17.77;;;;;;;1.00;100.00;96137.63;6293294;28;20837;-43
2022/11/22 04:09:47;;;;;;;30.97;17.37;;;;;;;1.01;100.00;96141.06;6288098;28;20377;-44
2022/11/22 04:12:50;;;;;;;34.23;18.70;;;;;;;1.02;100.00;96146.16;6293578;28;20244;-44
2022/11/22 04:15:54;;;;;;;27.77;16.23;;;;;;;1.03;100.00;96136.59;6292144;28;20229;-43
2022/11/22 04:18:56;;;;;;;31.60;16.87;;;;;;;1.04;100.00;96139.09;6292836;28;20234;-44
2022/11/22 04:21:58;;;;;;;30.67;16.73;;;;;;;1.07;100.00;96132.88;6292385;28;20235;-44
2022/11/22 04:25:15;;;;;;;27.27;15.27;;;;;;;1.10;100.00;96132.63;6290699;28;20584;-43
2022/11/22 04:28:20;;;;;;;23.17;15.47;;;;;;;1.11;100.00;96132.53;6287472;28;20234;-43
2022/11/22 04:34:52;;;;;;;26.67;15.53;;;;;;;1.15;100.00;96133.19;6287267;28;20600;-43
2022/11/22 04:37:54;;;;;;;26.40;15.53;;;;;;;1.18;100.00;96134.75;6291743;28;20232;-43
2022/11/22 04:45:37;;;;;;;25.77;14.30;;;;;;;1.15;100.00;96127.97;6289127;28;20224;-43
2022/11/22 04:48:56;;;;;;;23.63;13.03;;;;;;;1.17;100.00;96128.72;6286829;28;20240;-44
2022/11/22 04:55:20;;;;;;;24.50;14.80;;;;;;;1.21;100.00;96131.91;6287304;28;20241;-43
2022/11/22 04:58:22;;;;;;;26.13;15.00;;;;;;;1.22;100.00;96139.59;6287863;28;20259;-43
2022/11/22 05:01:24;;;;;;;19.70;12.50;;;;;;;1.22;100.00;96134.41;6291888;28;20223;-43
2022/11/22 05:04:26;;;;;;;27.17;15.20;;;;;;;1.22;100.00;96128.38;6293544;28;20330;-43
2022/11/22 05:07:28;;;;;;;22.37;13.03;;;;;;;1.23;100.00;96135.25;6291490;28;20229;-43
2022/11/22 05:13:52;;;;;;;30.53;16.13;;;;;;;1.27;100.00;96129.75;6290126;28;20231;-42
2022/11/22 05:16:54;;;;;;;28.40;15.90;;;;;;;1.25;100.00;96112.59;6291792;28;20216;-44
2022/11/22 05:19:56;;;;;;;27.83;16.27;;;;;;;1.24;100.00;96114.34;6289959;28;20896;-43
2022/11/22 05:26:26;;;;;;;25.33;15.47;;;;;;;1.25;100.00;96118.63;6287286;28;20640;-43
2022/11/22 05:29:28;;;;;;;21.93;13.23;;;;;;;1.26;100.00;96114.25;6290273;28;20329;-43
2022/11/22 05:32:32;;;;;;;22.83;12.80;;;;;;;1.25;100.00;96117.78;6289613;28;20584;-43
2022/11/22 05:35:34;;;;;;;23.53;13.90;;;;;;;1.23;100.00;96130.88;6291921;28;20706;-43
2022/11/22 05:38:37;;;;;;;16.90;10.10;;;;;;;1.25;100.00;96129.00;6288097;28;20236;-43
2022/11/22 05:41:54;;;;;;;15.00;10.83;;;;;;;1.28;100.00;96143.56;6292472;28;20239;-43
2022/11/22 05:44:57;;;;;;;26.57;15.13;;;;;;;1.29;100.00;96140.88;6293275;28;20766;-43
2022/11/22 05:47:59;;;;;;;23.13;13.17;;;;;;;1.31;100.00;96138.16;6289879;28;20323;-43
2022/11/22 05:51:06;;;;;;;18.70;11.53;;;;;;;1.28;100.00;96138.38;6287240;28;20259;-43
2022/11/22 05:54:08;;;;;;;19.83;12.40;;;;;;;1.27;100.00;96137.53;6286622;28;20312;-43
2022/11/22 05:57:10;;;;;;;18.50;11.90;;;;;;;1.29;100.00;96135.69;6286682;28;20351;-43
2022/11/22 06:00:12;;;;;;;20.13;13.30;;;;;;;1.28;100.00;96144.41;6290584;28;20296;-43
2022/11/22 06:03:14;;;;;;;26.00;14.13;;;;;;;1.25;100.00;96143.78;6289631;28;20605;-43
2022/11/22 06:06:17;;;;;;;21.47;13.13;;;;;;;1.22;100.00;96144.81;6286836;28;20716;-44
2022/11/22 06:09:19;;;;;;;18.63;12.10;;;;;;;1.23;100.00;96151.66;6292537;28;20225;-43
2022/11/22 06:12:21;;;;;;;23.73;13.60;;;;;;;1.26;100.00;96151.47;6292018;28;20250;-43
2022/11/22 06:15:23;;;;;;;19.67;11.90;;;;;;;1.24;100.00;96158.53;6286828;28;20259;-43
2022/11/22 06:18:25;;;;;;;21.23;12.90;;;;;;;1.23;100.00;96149.06;6291198;28;20648;-43
2022/11/22 06:21:27;;;;;;;21.03;12.97;;;;;;;1.21;100.00;96148.34;6290019;28;20280;-44
2022/11/22 06:24:29;;;;;;;21.20;12.67;;;;;;;1.20;100.00;96157.06;6289444;28;20255;-43
2022/11/22 06:27:31;;;;;;;17.73;11.60;;;;;;;1.20;100.00;96172.66;6287299;28;20227;-43
2022/11/22 06:30:33;;;;;;;18.00;11.10;;;;;;;1.20;100.00;96164.06;6289226;28;20230;-43
2022/11/22 06:33:35;;;;;;;17.83;10.70;;;;;;;1.19;100.00;96163.22;6290043;28;20375;-43
2022/11/22 06:36:38;;;;;;;20.27;11.93;;;;;;;1.19;100.00;96168.41;6290904;28;20318;-44
2022/11/22 06:39:40;;;;;;;17.90;10.43;;;;;;;1.19;100.00;96165.00;6289140;28;20310;-43
2022/11/22 06:42:42;;;;;;;22.10;12.40;;;;;;;1.19;100.00;96168.41;6289718;28;20272;-44
2022/11/22 06:45:44;;;;;;;21.73;12.90;;;;;;;1.21;100.00;96169.13;6289796;28;20256;-44
2022/11/22 06:48:47;;;;;;;20.17;12.57;;;;;;;1.22;100.00;96167.34;6290320;28;20272;-44
2022/11/22 06:51:50;;;;;;;20.63;12.17;;;;;;;1.21;100.00;96163.09;6289955;28;20706;-43
2022/11/22 06:54:52;;;;;;;23.80;13.67;;;;;;;1.21;100.00;96176.91;6287679;28;20229;-44
2022/11/22 06:57:54;;;;;;;22.90;14.03;;;;;;;1.26;100.00;96166.22;6284836;28;20234;-44
2022/11/22 07:01:07;;;;;;;21.00;13.30;;;;;;;1.28;100.00;96160.00;6284149;28;20729;-43
2022/11/22 07:04:09;;;;;;;24.80;13.63;;;;;;;1.32;100.00;96168.41;6285497;28;20275;-43
2022/11/22 07:07:11;;;;;;;21.73;12.97;;;;;;;1.38;100.00;96174.03;6288157;28;20237;-43
2022/11/22 07:10:14;;;;;;;23.73;14.37;;;;;;;1.46;100.00;96178.69;6288518;28;20245;-43
2022/11/22 07:13:16;;;;;;;22.37;12.87;;;;;;;1.53;100.00;96184.31;6289955;28;20599;-43
2022/11/22 07:16:19;;;;;;;23.13;13.23;;;;;;;1.62;100.00;96181.06;6286003;28;20244;-43
2022/11/22 07:19:22;;;;;;;25.33;13.97;;;;;;;1.70;100.00;96178.75;6294344;28;20263;-43
2022/11/22 07:22:24;;;;;;;22.93;13.53;;;;;;;1.78;100.00;96192.94;6291644;28;20716;-43
2022/11/22 07:25:26;;;;;;;22.73;13.33;;;;;;;1.85;100.00;96195.94;6292585;28;20599;-43
2022/11/22 07:28:28;;;;;;;31.83;16.40;;;;;;;1.90;100.00;96193.03;6294124;28;20232;-43
2022/11/22 07:31:30;;;;;;;28.33;16.10;;;;;;;1.97;100.00;96192.47;6292215;28;20248;-43
2022/11/22 07:34:32;;;;;;;23.27;13.43;;;;;;;2.03;100.00;96186.00;6294993;28;20730;-43
2022/11/22 07:37:34;;;;;;;23.10;14.43;;;;;;;2.08;100.00;96192.56;6257935;28;20235;-43
2022/11/22 07:40:36;;;;;;;27.33;15.83;;;;;;;2.16;100.00;96202.41;6295184;28;20225;-43
2022/11/22 07:43:38;;;;;;;23.97;13.97;;;;;;;2.23;100.00;96195.84;6274786;28;20230;-44
2022/11/22 07:46:42;;;;;;;23.70;14.67;;;;;;;2.31;100.00;96192.69;6293662;28;20744;-43
2022/11/22 07:49:44;;;;;;;26.43;14.43;;;;;;;2.38;100.00;96191.31;6294005;28;20369;-42
2022/11/22 07:52:53;;;;;;;29.27;16.37;;;;;;;2.44;100.00;96209.94;6290485;28;20222;-43
2022/11/22 07:55:56;;;;;;;26.20;15.53;;;;;;;2.49;100.00;96204.41;6293488;28;20230;-43
2022/11/22 07:58:58;;;;;;;28.03;15.07;;;;;;;2.54;100.00;96218.75;6290150;28;20229;-43
2022/11/22 08:02:01;;;;;;;28.47;15.90;;;;;;;2.59;100.00;96219.25;6289058;28;20241;-43
2022/11/22 08:05:06;;;;;;;29.70;16.20;;;;;;;2.67;100.00;96217.88;6292138;28;20237;-42
2022/11/22 08:08:08;;;;;;;32.93;18.50;;;;;;;2.70;100.00;96221.06;6275613;28;20226;-43
2022/11/22 08:11:10;;;;;;;33.97;18.83;;;;;;;2.72;100.00;96221.78;6292780;28;20328;-43
2022/11/22 08:14:12;;;;;;;28.33;15.50;;;;;;;2.73;100.00;96223.44;6269434;28;20286;-44
2022/11/22 08:17:15;;;;;;;31.93;18.10;;;;;;;2.79;100.00;96228.22;6287093;28;20280;-44
2022/11/22 08:20:17;;;;;;;40.23;19.20;;;;;;;2.82;100.00;96237.56;6293880;28;20229;-44
2022/11/22 08:23:19;;;;;;;36.17;19.87;;;;;;;2.85;100.00;96238.19;6291320;28;20586;-43
2022/11/22 08:26:21;;;;;;;33.23;18.23;;;;;;;2.89;100.00;96239.66;6291272;28;20233;-43
2022/11/22 08:29:23;;;;;;;29.50;16.53;;;;;;;2.93;100.00;96248.06;6290581;28;20342;-43
2022/11/22 08:32:25;;;;;;;25.47;15.47;;;;;;;2.96;100.00;96251.28;6291790;28;20231;-44
2022/11/22 08:35:27;;;;;;;24.03;14.27;;;;;;;2.99;100.00;96250.22;6287357;28;20235;-43
2022/11/22 08:38:30;;;;;;;32.03;19.47;;;;;;;3.05;100.00;96254.16;6290622;28;20234;-43
2022/11/22 08:41:32;;;;;;;29.67;17.63;;;;;;;3.09;100.00;96253.00;6278900;28;20255;-43
2022/11/22 08:44:34;;;;;;;25.60;15.50;;;;;;;3.14;100.00;96254.31;6289417;28;20333;-43
2022/11/22 08:47:36;;;;;;;30.50;17.07;;;;;;;3.20;100.00;96264.25;6297874;28;20270;-44
2022/11/22 08:50:38;;;;;;;28.17;16.13;;;;;;;3.22;100.00;96259.78;6290267;28;20282;-43
2022/11/22 08:53:43;;;;;;;25.00;14.60;;;;;;;3.31;100.00;96268.69;6293833;28;20253;-43
2022/11/22 08:56:45;;;;;;;25.23;15.43;;;;;;;3.35;100.00;96277.97;6286152;28;20234;-42
2022/11/22 08:59:47;;;;;;;26.00;15.30;;;;;;;3.41;100.00;96281.88;6289947;28;20233;-43
2022/11/22 09:02:49;;;;;;;25.13;14.00;;;;;;;3.47;100.00;96290.09;6293649;28;20317;-43
2022/11/22 09:05:51;;;;;;;26.23;14.57;;;;;;;3.51;100.00;96288.91;6289781;28;20237;-42
2022/11/22 09:09:13;;;;;;;24.17;15.10;;;;;;;3.53;100.00;96286.19;6290188;28;20232;-42
2022/11/22 09:12:35;;;;;;;23.13;14.30;;;;;;;3.54;100.00;96288.69;6288092;28;20214;-42
2022/11/22 09:15:37;;;;;;;22.57;13.20;;;;;;;3.59;100.00;96289.16;6291447;28;20237;-42
2022/11/22 09:18:40;;;;;;;24.30;13.87;;;;;;;3.63;100.00;96282.78;6291794;28;20233;-42
2022/11/22 09:21:42;;;;;;;28.13;16.20;;;;;;;3.64;100.00;96300.09;6289486;28;20763;-42
2022/11/22 09:24:44;;;;;;;24.10;14.30;;;;;;;3.64;100.00;96299.25;6286477;28;20714;-43
2022/11/22 09:27:46;;;;;;;23.47;15.07;;;;;;;3.65;100.00;96298.31;6292377;28;20232;-42
2022/11/22 09:30:48;;;;;;;27.37;15.00;;;;;;;3.67;100.00;96299.88;6290596;28;20230;-43
2022/11/22 09:33:50;;;;;;;22.63;14.30;;;;;;;3.72;100.00;96294.28;6288882;28;20313;-42
2022/11/22 09:36:53;;;;;;;21.70;13.97;;;;;;;3.78;100.00;96287.81;6290510;28;20348;-43
2022/11/22 09:39:54;;;;;;;24.43;14.77;;;;;;;3.83;100.00;96291.72;6283934;28;20438;-42
2022/11/22 09:43:19;;;;;;;23.27;14.20;;;;;;;3.90;100.00;96294.69;6288299;28;20304;-42
2022/11/22 09:46:24;;;;;;;17.20;12.73;;;;;;;3.93;100.00;96287.47;6278869;28;20719;-43
2022/11/22 09:49:45;;;;;;;20.83;14.27;;;;;;;3.98;100.00;96290.56;6286235;28;20383;-42
2022/11/22 09:53:12;;;;;;;19.60;13.07;;;;;;;4.04;100.00;96294.47;6248710;28;20227;-42
2022/11/22 09:56:17;;;;;;;17.93;12.17;;;;;;;4.09;100.00;96295.78;6292475;28;20233;-42
2022/11/22 09:59:33;;;;;;;19.53;12.73;;;;;;;4.12;100.00;96292.09;6281598;28;20230;-43
2022/11/22 10:02:44;;;;;;;18.97;12.40;;;;;;;4.10;100.00;96283.56;6292446;28;20269;-43
2022/11/22 10:06:07;;;;;;;16.47;11.43;;;;;;;4.09;100.00;96287.13;6287131;28;20257;-43
2022/11/22 10:09:28;;;;;;;21.63;13.20;;;;;;;4.08;100.00;96282.84;6286027;28;20583;-44
2022/11/22 10:13:01;;;;;;;25.77;15.23;;;;;;;4.01;100.00;96286.88;6289391;28;20229;-43
2022/11/22 10:16:15;;;;;;;22.00;13.57;;;;;;;3.95;100.00;96285.56;6271419;28;20262;-43
2022/11/22 10:19:25;;;;;;;22.33;14.30;;;;;;;3.97;100.00;96293.28;6282829;28;20237;-43
2022/11/22 10:22:29;;;;;;;17.50;11.93;;;;;;;3.98;100.00;96294.94;6292427;28;20261;-43
2022/11/22 10:25:46;;;;;;;19.17;13.37;;;;;;;3.97;100.00;96288.91;6290344;28;20261;-44
2022/11/22 10:29:07;;;;;;;24.23;14.83;;;;;;;3.95;100.00;96282.13;6291860;28;20239;-43
2022/11/22 10:32:37;;;;;;;21.10;14.03;;;;;;;3.99;100.00;96286.19;6258989;28;20237;-43
2022/11/22 10:36:03;;;;;;;19.73;13.23;;;;;;;4.07;100.00;96282.03;6263269;28;20607;-42
2022/11/22 10:39:23;;;;;;;24.63;13.73;;;;;;;4.23;100.00;96280.84;6260343;28;20574;-43
2022/11/22 10:42:52;;;;;;;20.77;13.60;;;;;;;4.29;100.00;96280.38;6262513;28;20227;-43
2022/11/22 10:46:12;;;;;;;19.80;12.53;;;;;;;4.37;100.00;96283.22;6115676;28;20315;-43
2022/11/22 10:49:20;;;;;;;18.37;12.97;;;;;;;4.47;100.00;96276.31;6115442;28;20250;-42
2022/11/22 10:52:25;;;;;;;17.13;11.57;;;;;;;4.52;100.00;96286.41;6119431;28;20601;-42
2022/11/22 10:55:39;;;;;;;14.73;10.63;;;;;;;4.54;100.00;96281.88;6121052;28;20267;-43
2022/11/22 10:59:22;;;;;;;18.07;11.30;;;;;;;4.55;100.00;96279.16;6119772;28;20244;-42
2022/11/22 11:02:54;;;;;;;18.60;12.50;;;;;;;4.58;100.00;96276.31;6124168;28;20794;-43
2022/11/22 11:06:25;;;;;;;17.43;11.63;;;;;;;4.59;99.97;96270.09;6121746;28;20835;-43
2022/11/22 11:09:57;;;;;;;18.20;11.97;;;;;;;4.61;99.19;96270.00;6119745;28;20243;-43
2022/11/22 11:13:27;;;;;;;19.93;12.80;;;;;;;4.64;99.63;96273.22;6119286;28;20244;-43
2022/11/22 11:16:35;;;;;;;20.90;13.83;;;;;;;4.60;98.77;96270.94;6117512;28;20279;-43
2022/11/22 11:19:40;;;;;;;24.17;14.73;;;;;;;4.29;98.31;96275.16;6118809;29;20351;-42
2022/11/22 11:22:42;;;;;;;21.03;14.13;;;;;;;4.18;99.21;96273.38;6200726;28;20327;-43
2022/11/22 11:26:27;;;;;;;22.07;15.67;;;;;;;4.06;99.54;96269.09;6264660;28;20250;-44
2022/11/22 11:29:44;;;;;;;24.73;15.37;;;;;;;4.00;100.00;96272.16;6270894;28;20346;-43
2022/11/22 11:32:52;;;;;;;25.57;16.10;;;;;;;3.99;100.00;96275.75;6287880;28;20383;-43
2022/11/22 11:36:01;;;;;;;23.87;15.63;;;;;;;3.96;100.00;96275.97;6289443;28;20338;-43
2022/11/22 11:39:03;;;;;;;27.17;16.77;;;;;;;3.91;100.00;96276.31;6290651;28;20283;-44
2022/11/22 11:42:33;;;;;;;24.80;16.17;;;;;;;3.90;100.00;96272.03;6292327;28;20307;-43
2022/11/22 11:45:35;;;;;;;27.83;15.77;;;;;;;3.91;100.00;96280.69;6290544;28;20692;-43
2022/11/22 11:48:40;;;;;;;27.27;17.30;;;;;;;3.91;100.00;96270.25;6291175;28;20646;-43
2022/11/22 11:51:53;;;;;;;31.10;18.83;;;;;;;3.84;100.00;96261.22;6287458;28;20613;-43
2022/11/22 11:55:01;;;;;;;33.00;19.93;;;;;;;3.78;100.00;96252.09;6290054;28;20254;-43
2022/11/22 11:58:30;;;;;;;28.03;18.17;;;;;;;3.79;100.00;96251.16;6287949;28;20731;-43
2022/11/22 12:01:34;;;;;;;24.43;17.23;;;;;;;3.76;100.00;96254.00;6278491;28;20226;-43
2022/11/22 12:04:56;;;;;;;23.40;16.77;;;;;;;3.76;100.00;96268.81;6292212;28;20228;-44
2022/11/22 12:08:02;;;;;;;23.43;16.80;;;;;;;3.76;100.00;96269.66;6293527;28;20440;-43
2022/11/22 12:11:10;;;;;;;27.03;16.67;;;;;;;3.75;100.00;96265.38;6292540;28;20240;-43
2022/11/22 12:14:15;;;;;;;24.37;17.80;;;;;;;3.73;100.00;96264.66;6284230;28;20263;-43
2022/11/22 12:17:29;;;;;;;22.13;15.90;;;;;;;3.72;100.00;96252.56;6291936;28;20448;-43
2022/11/22 12:20:41;;;;;;;24.23;16.13;;;;;;;3.81;100.00;96262.28;6289194;28;20236;-43
2022/11/22 12:23:50;;;;;;;28.43;16.53;;;;;;;3.89;100.00;96261.72;6289676;28;20500;-43
2022/11/22 12:26:55;;;;;;;19.63;14.23;;;;;;;3.96;100.00;96266.34;6288379;28;20269;-42
2022/11/22 12:29:57;;;;;;;25.40;16.43;;;;;;;4.03;100.00;96271.94;6289868;28;20238;-43
2022/11/22 12:33:04;;;;;;;19.77;14.87;;;;;;;3.94;100.00;96270.84;6293918;28;20633;-43
2022/11/22 12:36:28;;;;;;;23.17;15.10;;;;;;;3.94;100.00;96276.06;6286693;28;20260;-43
2022/11/22 12:39:54;;;;;;;28.97;19.03;;;;;;;3.79;99.71;96281.66;6291658;28;20222;-43
2022/11/22 12:43:25;;;;;;;29.60;20.63;;;;;;;3.76;100.00;96284.47;6290437;28;20249;-44
2022/11/22 12:46:39;;;;;;;25.47;18.90;;;;;;;3.69;100.00;96284.13;6279203;28;20250;-43
2022/11/22 12:49:58;;;;;;;26.93;19.67;;;;;;;3.71;100.00;96284.81;6287026;28;20252;-44
2022/11/22 12:53:26;;;;;;;28.37;19.57;;;;;;;3.74;100.00;96286.34;6288215;28;20218;-43
2022/11/22 12:56:38;;;;;;;28.33;21.27;;;;;;;3.68;100.00;96287.66;6289434;28;20227;-44
2022/11/22 12:59:45;;;;;;;29.33;21.40;;;;;;;3.62;99.89;96285.50;6290033;28;20220;-43
2022/11/22 13:03:02;;;;;;;28.13;20.23;;;;;;;3.63;100.00;96297.59;6287488;28;20234;-43
2022/11/22 13:06:07;;;;;;;25.00;18.57;;;;;;;3.65;100.00;96287.88;6269892;28;20272;-43
2022/11/22 13:09:18;;;;;;;30.23;19.87;;;;;;;3.67;100.00;96286.84;6286967;28;20242;-44
2022/11/22 13:12:35;;;;;;;29.60;21.27;;;;;;;3.66;99.91;96297.38;6286886;28;22486;-43
2022/11/22 13:15:39;;;;;;;26.00;18.77;;;;;;;3.60;99.79;96292.59;6288026;28;20694;-43
2022/11/22 13:18:54;;;;;;;27.40;18.03;;;;;;;3.61;99.81;96300.31;6292691;28;20715;-43
2022/11/22 13:21:59;;;;;;;21.27;16.97;;;;;;;3.63;100.00;96295.00;6270063;28;20234;-43
2022/11/22 13:25:30;;;;;;;24.37;17.73;;;;;;;3.61;99.27;96307.31;6288565;28;20411;-43
2022/11/22 13:28:36;;;;;;;26.87;18.10;;;;;;;3.49;98.85;96298.66;6286340;28;20333;-44
2022/11/22 13:32:05;;;;;;;27.37;19.13;;;;;;;3.52;99.81;96305.38;6284815;28;20677;-43
2022/11/22 13:35:10;;;;;;;27.17;19.07;;;;;;;3.54;99.28;96299.13;6290803;28;20225;-44
2022/11/22 13:38:16;;;;;;;25.57;18.33;;;;;;;3.59;99.06;96296.97;6283388;28;20238;-43
2022/11/22 13:41:26;;;;;;;22.00;15.90;;;;;;;3.64;99.70;96289.66;6290549;28;20219;-44
2022/11/22 13:44:31;;;;;;;25.50;17.77;;;;;;;3.68;99.33;96287.66;6291322;28;20246;-42
2022/11/22 13:47:37;;;;;;;24.80;19.10;;;;;;;3.67;99.28;96292.06;6288524;28;20226;-43
2022/11/22 13:50:39;;;;;;;26.67;19.30;;;;;;;3.59;98.79;96286.56;6283428;28;20291;-43
2022/11/22 13:53:46;;;;;;;24.13;17.10;;;;;;;3.60;98.62;96282.16;6286610;28;20240;-44
2022/11/22 13:56:58;;;;;;;24.33;18.10;;;;;;;3.60;98.73;96288.22;6266968;28;20268;-44
2022/11/22 14:00:13;;;;;;;28.50;19.17;;;;;;;3.59;98.69;96293.56;6269421;28;20596;-43
2022/11/22 14:03:15;;;;;;;21.97;16.23;;;;;;;3.57;98.26;96300.69;6265774;28;20214;-45
2022/11/22 14:06:27;;;;;;;24.97;18.60;;;;;;;3.52;99.03;96305.38;6264322;28;20665;-43
2022/11/22 14:09:38;;;;;;;25.50;19.13;;;;;;;3.51;98.03;96303.72;6269497;28;20700;-43
2022/11/22 14:12:47;;;;;;;25.33;18.37;;;;;;;3.52;98.31;96300.16;6282045;28;20215;-43
2022/11/22 14:16:14;;;;;;;25.83;17.97;;;;;;;3.57;98.55;96318.94;6280271;28;20329;-43
2022/11/22 14:19:42;;;;;;;25.17;18.60;;;;;;;3.53;98.79;96330.53;6276917;28;20235;-43
2022/11/22 14:23:04;;;;;;;27.43;21.20;;;;;;;3.48;98.41;96327.44;6257985;28;20229;-45
2022/11/22 14:26:19;;;;;;;27.77;21.90;;;;;;;3.47;98.36;96317.94;6273800;28;20267;-43
2022/11/22 14:29:40;;;;;;;36.73;24.10;;;;;;;3.43;98.74;96332.97;6285922;28;20381;-43
2022/11/22 14:33:02;;;;;;;34.77;26.30;;;;;;;3.41;98.39;96331.41;6277710;28;20315;-43
2022/11/22 14:36:07;;;;;;;33.43;22.43;;;;;;;3.40;98.96;96330.59;6287753;28;20758;-43
2022/11/22 14:39:43;;;;;;;34.20;25.20;;;;;;;3.42;98.51;96323.50;6280832;28;20202;-44